sensor_id;sensor_type;location;lat;lon;timestamp;pressure;altitude;pressure_sealevel;temperature;humidity
2339;BME280;1180;51.438;6.978;2023-04-24T00:00:14;98772.44;;;14.21;77.86
2339;BME280;1180;51.438;6.978;2023-04-24T00:02:41;98775.38;;;14.26;77.08
2339;BME280;1180;51.438;6.978;2023-04-24T00:05:11;98774.31;;;14.37;76.81
2339;BME280;1180;51.438;6.978;2023-04-24T00:07:37;98768.03;;;14.39;76.50
2339;BME280;1180;51.438;6.978;2023-04-24T00:10:02;98774.59;;;14.25;77.13
2339;BME280;1180;51.438;6.978;2023-04-24T00:12:27;98774.16;;;14.12;77.02
2339;BME280;1180;51.438;6.978;2023-04-24T00:14:53;98772.53;;;14.11;77.66
2339;BME280;1180;51.438;6.978;2023-04-24T00:17:18;98762.94;;;14.21;77.49
2339;BME280;1180;51.438;6.978;2023-04-24T00:19:48;98779.50;;;14.37;76.31
2339;BME280;1180;51.438;6.978;2023-04-24T00:22:13;98776.25;;;14.35;76.42
2339;BME280;1180;51.438;6.978;2023-04-24T00:24:39;98775.81;;;14.21;75.66
2339;BME280;1180;51.438;6.978;2023-04-24T00:27:05;98769.97;;;14.11;75.51
2339;BME280;1180;51.438;6.978;2023-04-24T00:29:30;98771.16;;;13.98;76.29
2339;BME280;1180;51.438;6.978;2023-04-24T00:31:56;98768.06;;;13.95;76.59
2339;BME280;1180;51.438;6.978;2023-04-24T00:34:21;98770.34;;;13.98;76.01
2339;BME280;1180;51.438;6.978;2023-04-24T00:36:46;98773.22;;;13.95;75.93
2339;BME280;1180;51.438;6.978;2023-04-24T00:39:14;98769.69;;;13.96;76.10
2339;BME280;1180;51.438;6.978;2023-04-24T00:41:39;98767.31;;;14.03;76.07
2339;BME280;1180;51.438;6.978;2023-04-24T00:44:05;98766.66;;;14.00;76.15
2339;BME280;1180;51.438;6.978;2023-04-24T00:46:31;98763.66;;;13.87;76.50
2339;BME280;1180;51.438;6.978;2023-04-24T00:48:56;98766.88;;;13.89;76.39
2339;BME280;1180;51.438;6.978;2023-04-24T00:51:22;98773.91;;;13.79;76.56
2339;BME280;1180;51.438;6.978;2023-04-24T00:53:49;98778.34;;;13.68;77.42
2339;BME280;1180;51.438;6.978;2023-04-24T00:56:16;98771.56;;;13.67;77.00
2339;BME280;1180;51.438;6.978;2023-04-24T00:58:42;98768.09;;;13.58;76.98
2339;BME280;1180;51.438;6.978;2023-04-24T01:01:08;98769.06;;;13.57;77.55
2339;BME280;1180;51.438;6.978;2023-04-24T01:03:34;98770.13;;;13.55;77.41
2339;BME280;1180;51.438;6.978;2023-04-24T01:06:02;98778.03;;;13.53;77.95
2339;BME280;1180;51.438;6.978;2023-04-24T01:08:28;98773.50;;;13.37;77.99
2339;BME280;1180;51.438;6.978;2023-04-24T01:10:55;98774.56;;;13.45;78.21
2339;BME280;1180;51.438;6.978;2023-04-24T01:13:22;98779.13;;;13.51;78.06
2339;BME280;1180;51.438;6.978;2023-04-24T01:15:47;98774.44;;;13.46;78.07
2339;BME280;1180;51.438;6.978;2023-04-24T01:18:13;98773.59;;;13.46;78.70
2339;BME280;1180;51.438;6.978;2023-04-24T01:20:42;98779.59;;;13.46;78.36
2339;BME280;1180;51.438;6.978;2023-04-24T01:23:10;98774.44;;;13.18;79.60
2339;BME280;1180;51.438;6.978;2023-04-24T01:25:36;98775.19;;;13.28;79.45
2339;BME280;1180;51.438;6.978;2023-04-24T01:28:03;98780.53;;;13.17;79.59
2339;BME280;1180;51.438;6.978;2023-04-24T01:30:29;98788.06;;;13.28;79.64
2339;BME280;1180;51.438;6.978;2023-04-24T01:32:55;98784.38;;;13.31;79.96
2339;BME280;1180;51.438;6.978;2023-04-24T01:35:20;98785.47;;;13.28;79.73
2339;BME280;1180;51.438;6.978;2023-04-24T01:37:46;98778.94;;;13.34;79.33
2339;BME280;1180;51.438;6.978;2023-04-24T01:40:11;98781.53;;;13.34;79.47
2339;BME280;1180;51.438;6.978;2023-04-24T01:42:37;98782.88;;;13.10;80.32
2339;BME280;1180;51.438;6.978;2023-04-24T01:45:04;98790.47;;;13.12;80.07
2339;BME280;1180;51.438;6.978;2023-04-24T01:47:30;98787.63;;;13.05;80.33
2339;BME280;1180;51.438;6.978;2023-04-24T01:49:57;98788.56;;;13.14;80.46
2339;BME280;1180;51.438;6.978;2023-04-24T01:52:22;98783.91;;;13.18;79.94
2339;BME280;1180;51.438;6.978;2023-04-24T01:54:48;98788.31;;;13.07;80.74
2339;BME280;1180;51.438;6.978;2023-04-24T01:57:14;98791.16;;;13.04;80.76
2339;BME280;1180;51.438;6.978;2023-04-24T01:59:39;98787.47;;;13.07;79.99
2339;BME280;1180;51.438;6.978;2023-04-24T02:02:05;98781.44;;;12.98;79.82
2339;BME280;1180;51.438;6.978;2023-04-24T02:04:31;98796.59;;;13.01;80.26
2339;BME280;1180;51.438;6.978;2023-04-24T02:06:56;98792.19;;;12.83;80.11
2339;BME280;1180;51.438;6.978;2023-04-24T02:09:22;98802.66;;;12.82;79.93
2339;BME280;1180;51.438;6.978;2023-04-24T02:11:47;98804.44;;;12.71;79.91
2339;BME280;1180;51.438;6.978;2023-04-24T02:14:12;98800.69;;;12.66;80.49
2339;BME280;1180;51.438;6.978;2023-04-24T02:16:38;98798.63;;;12.69;80.28
2339;BME280;1180;51.438;6.978;2023-04-24T02:19:03;98802.69;;;12.72;80.26
2339;BME280;1180;51.438;6.978;2023-04-24T02:21:29;98798.31;;;12.73;80.38
2339;BME280;1180;51.438;6.978;2023-04-24T02:23:55;98799.28;;;12.71;80.42
2339;BME280;1180;51.438;6.978;2023-04-24T02:26:21;98792.41;;;12.62;80.99
2339;BME280;1180;51.438;6.978;2023-04-24T02:28:46;98799.88;;;12.55;81.96
2339;BME280;1180;51.438;6.978;2023-04-24T02:31:12;98795.16;;;12.51;81.31
2339;BME280;1180;51.438;6.978;2023-04-24T02:33:37;98793.00;;;12.46;82.83
2339;BME280;1180;51.438;6.978;2023-04-24T02:36:03;98793.53;;;12.50;82.66
2339;BME280;1180;51.438;6.978;2023-04-24T02:38:29;98798.91;;;12.66;82.31
2339;BME280;1180;51.438;6.978;2023-04-24T02:40:54;98795.91;;;12.71;81.22
2339;BME280;1180;51.438;6.978;2023-04-24T02:43:20;98788.13;;;12.53;81.89
2339;BME280;1180;51.438;6.978;2023-04-24T02:45:45;98792.97;;;12.56;82.43
2339;BME280;1180;51.438;6.978;2023-04-24T02:48:11;98791.34;;;12.65;81.66
2339;BME280;1180;51.438;6.978;2023-04-24T02:50:36;98801.06;;;12.71;81.88
2339;BME280;1180;51.438;6.978;2023-04-24T02:53:01;98802.69;;;12.72;81.68
2339;BME280;1180;51.438;6.978;2023-04-24T02:55:27;98793.63;;;12.68;82.24
2339;BME280;1180;51.438;6.978;2023-04-24T02:57:54;98802.41;;;12.75;82.50
2339;BME280;1180;51.438;6.978;2023-04-24T03:00:19;98806.22;;;12.61;81.97
2339;BME280;1180;51.438;6.978;2023-04-24T03:02:44;98820.59;;;12.64;82.49
2339;BME280;1180;51.438;6.978;2023-04-24T03:05:10;98809.06;;;12.68;82.26
2339;BME280;1180;51.438;6.978;2023-04-24T03:07:37;98819.34;;;12.68;82.22
2339;BME280;1180;51.438;6.978;2023-04-24T03:10:03;98815.56;;;12.72;82.20
2339;BME280;1180;51.438;6.978;2023-04-24T03:12:30;98816.59;;;12.79;82.19
2339;BME280;1180;51.438;6.978;2023-04-24T03:14:55;98818.91;;;12.82;81.92
2339;BME280;1180;51.438;6.978;2023-04-24T03:17:20;98812.78;;;12.83;81.90
2339;BME280;1180;51.438;6.978;2023-04-24T03:19:46;98817.66;;;12.86;81.67
2339;BME280;1180;51.438;6.978;2023-04-24T03:22:11;98825.81;;;12.82;82.02
2339;BME280;1180;51.438;6.978;2023-04-24T03:24:37;98820.13;;;12.78;81.79
2339;BME280;1180;51.438;6.978;2023-04-24T03:27:02;98817.00;;;12.75;82.10
2339;BME280;1180;51.438;6.978;2023-04-24T03:29:28;98829.88;;;12.75;82.20
2339;BME280;1180;51.438;6.978;2023-04-24T03:31:53;98827.09;;;12.68;82.02
2339;BME280;1180;51.438;6.978;2023-04-24T03:34:18;98832.66;;;12.53;82.35
2339;BME280;1180;51.438;6.978;2023-04-24T03:36:44;98827.53;;;12.44;83.62
2339;BME280;1180;51.438;6.978;2023-04-24T03:39:09;98823.31;;;12.42;83.53
2339;BME280;1180;51.438;6.978;2023-04-24T03:41:35;98829.13;;;12.54;83.87
2339;BME280;1180;51.438;6.978;2023-04-24T03:44:00;98826.25;;;12.67;83.08
2339;BME280;1180;51.438;6.978;2023-04-24T03:46:25;98833.03;;;12.68;83.14
2339;BME280;1180;51.438;6.978;2023-04-24T03:48:51;98833.97;;;12.67;82.91
2339;BME280;1180;51.438;6.978;2023-04-24T03:51:16;98832.63;;;12.73;83.02
2339;BME280;1180;51.438;6.978;2023-04-24T03:53:41;98832.72;;;12.81;82.40
2339;BME280;1180;51.438;6.978;2023-04-24T03:56:07;98836.81;;;12.74;82.76
2339;BME280;1180;51.438;6.978;2023-04-24T03:58:32;98833.25;;;12.85;82.55
2339;BME280;1180;51.438;6.978;2023-04-24T04:00:58;98830.66;;;12.95;81.52
2339;BME280;1180;51.438;6.978;2023-04-24T04:03:23;98826.59;;;12.92;80.82
2339;BME280;1180;51.438;6.978;2023-04-24T04:05:50;98832.81;;;12.90;81.75
2339;BME280;1180;51.438;6.978;2023-04-24T04:08:15;98829.19;;;12.82;81.23
2339;BME280;1180;51.438;6.978;2023-04-24T04:10:41;98824.88;;;12.73;81.36
2339;BME280;1180;51.438;6.978;2023-04-24T04:13:06;98815.28;;;12.65;81.69
2339;BME280;1180;51.438;6.978;2023-04-24T04:15:31;98829.78;;;12.56;82.47
2339;BME280;1180;51.438;6.978;2023-04-24T04:17:57;98830.63;;;12.57;82.29
2339;BME280;1180;51.438;6.978;2023-04-24T04:20:22;98825.19;;;12.60;82.52
2339;BME280;1180;51.438;6.978;2023-04-24T04:22:48;98831.41;;;12.67;82.71
2339;BME280;1180;51.438;6.978;2023-04-24T04:25:13;98830.88;;;12.64;82.14
2339;BME280;1180;51.438;6.978;2023-04-24T04:27:39;98835.97;;;12.74;81.64
2339;BME280;1180;51.438;6.978;2023-04-24T04:30:07;98840.59;;;12.80;80.93
2339;BME280;1180;51.438;6.978;2023-04-24T04:32:34;98836.25;;;12.80;81.23
2339;BME280;1180;51.438;6.978;2023-04-24T04:35:02;98850.91;;;12.80;80.98
2339;BME280;1180;51.438;6.978;2023-04-24T04:37:37;98842.94;;;12.63;81.38
2339;BME280;1180;51.438;6.978;2023-04-24T04:40:03;98836.13;;;12.72;81.17
2339;BME280;1180;51.438;6.978;2023-04-24T04:42:32;98835.28;;;12.81;80.45
2339;BME280;1180;51.438;6.978;2023-04-24T04:44:59;98844.13;;;12.69;80.43
2339;BME280;1180;51.438;6.978;2023-04-24T04:47:25;98838.91;;;12.89;80.62
2339;BME280;1180;51.438;6.978;2023-04-24T04:49:51;98855.59;;;12.84;80.21
2339;BME280;1180;51.438;6.978;2023-04-24T04:52:17;98849.41;;;12.77;80.87
2339;BME280;1180;51.438;6.978;2023-04-24T04:54:43;98844.91;;;12.79;81.22
2339;BME280;1180;51.438;6.978;2023-04-24T04:57:08;98845.59;;;12.71;80.40
2339;BME280;1180;51.438;6.978;2023-04-24T04:59:34;98836.53;;;12.77;80.11
2339;BME280;1180;51.438;6.978;2023-04-24T05:02:00;98844.13;;;12.79;79.96
2339;BME280;1180;51.438;6.978;2023-04-24T05:04:25;98840.47;;;12.71;80.49
2339;BME280;1180;51.438;6.978;2023-04-24T05:06:51;98852.34;;;12.82;79.58
2339;BME280;1180;51.438;6.978;2023-04-24T05:09:17;98847.22;;;12.82;79.69
2339;BME280;1180;51.438;6.978;2023-04-24T05:11:42;98857.25;;;12.76;80.02
2339;BME280;1180;51.438;6.978;2023-04-24T05:14:07;98855.50;;;12.66;80.16
2339;BME280;1180;51.438;6.978;2023-04-24T05:16:33;98858.53;;;12.62;79.99
2339;BME280;1180;51.438;6.978;2023-04-24T05:18:58;98853.38;;;12.62;80.11
2339;BME280;1180;51.438;6.978;2023-04-24T05:21:23;98859.59;;;12.69;80.24
2339;BME280;1180;51.438;6.978;2023-04-24T05:23:49;98859.31;;;12.52;81.34
2339;BME280;1180;51.438;6.978;2023-04-24T05:26:14;98856.34;;;12.57;81.98
2339;BME280;1180;51.438;6.978;2023-04-24T05:28:40;98865.69;;;12.68;83.10
2339;BME280;1180;51.438;6.978;2023-04-24T05:31:06;98873.56;;;12.47;85.93
2339;BME280;1180;51.438;6.978;2023-04-24T05:33:31;98873.69;;;12.45;86.71
2339;BME280;1180;51.438;6.978;2023-04-24T05:35:56;98875.03;;;12.49;87.23
2339;BME280;1180;51.438;6.978;2023-04-24T05:38:22;98867.47;;;12.48;87.83
2339;BME280;1180;51.438;6.978;2023-04-24T05:40:48;98866.13;;;12.44;88.31
2339;BME280;1180;51.438;6.978;2023-04-24T05:43:13;98869.50;;;12.44;88.74
2339;BME280;1180;51.438;6.978;2023-04-24T05:45:39;98869.63;;;12.42;89.89
2339;BME280;1180;51.438;6.978;2023-04-24T05:48:05;98875.47;;;12.35;90.80
2339;BME280;1180;51.438;6.978;2023-04-24T05:50:31;98876.16;;;12.37;90.20
2339;BME280;1180;51.438;6.978;2023-04-24T05:52:56;98873.56;;;12.37;89.31
2339;BME280;1180;51.438;6.978;2023-04-24T05:55:26;98874.13;;;12.31;89.84
2339;BME280;1180;51.438;6.978;2023-04-24T05:57:52;98874.13;;;12.31;90.17
2339;BME280;1180;51.438;6.978;2023-04-24T06:00:17;98884.00;;;12.35;89.82
2339;BME280;1180;51.438;6.978;2023-04-24T06:02:44;98878.59;;;12.28;90.52
2339;BME280;1180;51.438;6.978;2023-04-24T06:05:10;98875.06;;;12.20;90.70
2339;BME280;1180;51.438;6.978;2023-04-24T06:07:36;98871.97;;;12.26;90.21
2339;BME280;1180;51.438;6.978;2023-04-24T06:10:02;98878.31;;;12.22;88.60
2339;BME280;1180;51.438;6.978;2023-04-24T06:12:27;98878.03;;;12.25;89.54
2339;BME280;1180;51.438;6.978;2023-04-24T06:14:53;98878.44;;;12.30;89.23
2339;BME280;1180;51.438;6.978;2023-04-24T06:17:20;98880.50;;;12.17;89.04
2339;BME280;1180;51.438;6.978;2023-04-24T06:19:46;98876.16;;;12.27;89.44
2339;BME280;1180;51.438;6.978;2023-04-24T06:22:11;98873.03;;;12.23;90.02
2339;BME280;1180;51.438;6.978;2023-04-24T06:24:36;98879.00;;;12.14;90.10
2339;BME280;1180;51.438;6.978;2023-04-24T06:27:02;98881.41;;;12.25;91.08
2339;BME280;1180;51.438;6.978;2023-04-24T06:29:27;98885.06;;;12.03;90.72
2339;BME280;1180;51.438;6.978;2023-04-24T06:31:53;98879.38;;;11.99;93.25
2339;BME280;1180;51.438;6.978;2023-04-24T06:34:18;98874.00;;;12.12;92.73
2339;BME280;1180;51.438;6.978;2023-04-24T06:36:44;98873.69;;;12.25;93.01
2339;BME280;1180;51.438;6.978;2023-04-24T06:39:09;98872.63;;;12.18;92.81
2339;BME280;1180;51.438;6.978;2023-04-24T06:41:35;98873.31;;;12.20;94.15
2339;BME280;1180;51.438;6.978;2023-04-24T06:44:00;98869.66;;;12.33;94.64
2339;BME280;1180;51.438;6.978;2023-04-24T06:46:26;98860.72;;;12.37;93.44
2339;BME280;1180;51.438;6.978;2023-04-24T06:48:53;98873.19;;;12.32;93.95
2339;BME280;1180;51.438;6.978;2023-04-24T06:51:25;98874.81;;;12.33;94.24
2339;BME280;1180;51.438;6.978;2023-04-24T06:53:52;98874.13;;;12.31;94.48
2339;BME280;1180;51.438;6.978;2023-04-24T06:56:18;98865.59;;;12.20;94.01
2339;BME280;1180;51.438;6.978;2023-04-24T06:58:43;98862.34;;;12.18;95.03
2339;BME280;1180;51.438;6.978;2023-04-24T07:01:10;98875.75;;;12.32;94.19
2339;BME280;1180;51.438;6.978;2023-04-24T07:03:36;98869.66;;;12.33;93.24
2339;BME280;1180;51.438;6.978;2023-04-24T07:06:01;98864.38;;;12.24;92.41
2339;BME280;1180;51.438;6.978;2023-04-24T07:08:28;98869.38;;;12.06;94.24
2339;BME280;1180;51.438;6.978;2023-04-24T07:10:56;98864.88;;;11.98;94.11
2339;BME280;1180;51.438;6.978;2023-04-24T07:13:22;98880.59;;;11.95;94.63
2339;BME280;1180;51.438;6.978;2023-04-24T07:15:48;98877.06;;;11.96;94.39
2339;BME280;1180;51.438;6.978;2023-04-24T07:18:15;98875.84;;;11.91;94.54
2339;BME280;1180;51.438;6.978;2023-04-24T07:20:41;98880.16;;;11.90;94.92
2339;BME280;1180;51.438;6.978;2023-04-24T07:23:06;98867.22;;;12.02;94.22
2339;BME280;1180;51.438;6.978;2023-04-24T07:25:31;98874.22;;;11.90;94.57
2339;BME280;1180;51.438;6.978;2023-04-24T07:27:57;98869.88;;;11.90;95.80
2339;BME280;1180;51.438;6.978;2023-04-24T07:30:22;98872.22;;;12.03;95.27
2339;BME280;1180;51.438;6.978;2023-04-24T07:32:47;98868.41;;;12.07;94.17
2339;BME280;1180;51.438;6.978;2023-04-24T07:35:13;98875.28;;;11.97;93.76
2339;BME280;1180;51.438;6.978;2023-04-24T07:37:38;98877.88;;;11.97;94.17
2339;BME280;1180;51.438;6.978;2023-04-24T07:40:04;98886.16;;;12.01;92.26
2339;BME280;1180;51.438;6.978;2023-04-24T07:42:30;98895.31;;;11.83;93.82
2339;BME280;1180;51.438;6.978;2023-04-24T07:44:56;98894.06;;;11.78;93.27
2339;BME280;1180;51.438;6.978;2023-04-24T07:47:21;98894.09;;;11.88;93.90
2339;BME280;1180;51.438;6.978;2023-04-24T07:49:46;98894.91;;;11.88;92.06
2339;BME280;1180;51.438;6.978;2023-04-24T07:52:12;98888.03;;;11.98;93.19
2339;BME280;1180;51.438;6.978;2023-04-24T07:54:37;98898.03;;;11.92;93.20
2339;BME280;1180;51.438;6.978;2023-04-24T07:57:03;98894.56;;;12.03;91.50
2339;BME280;1180;51.438;6.978;2023-04-24T07:59:28;98906.41;;;11.94;90.70
2339;BME280;1180;51.438;6.978;2023-04-24T08:01:54;98910.31;;;11.88;90.02
2339;BME280;1180;51.438;6.978;2023-04-24T08:04:19;98910.59;;;11.95;90.67
2339;BME280;1180;51.438;6.978;2023-04-24T08:06:47;98912.13;;;11.97;90.47
2339;BME280;1180;51.438;6.978;2023-04-24T08:09:12;98913.84;;;11.97;90.52
2339;BME280;1180;51.438;6.978;2023-04-24T08:11:38;98917.75;;;11.91;90.66
2339;BME280;1180;51.438;6.978;2023-04-24T08:14:03;98915.47;;;11.78;90.47
2339;BME280;1180;51.438;6.978;2023-04-24T08:16:28;98927.59;;;11.66;91.75
2339;BME280;1180;51.438;6.978;2023-04-24T08:18:54;98931.88;;;11.46;91.79
2339;BME280;1180;51.438;6.978;2023-04-24T08:21:19;98932.91;;;11.44;94.13
2339;BME280;1180;51.438;6.978;2023-04-24T08:23:46;98933.97;;;11.41;94.14
2339;BME280;1180;51.438;6.978;2023-04-24T08:26:12;98931.56;;;11.39;95.17
2339;BME280;1180;51.438;6.978;2023-04-24T08:28:37;98942.34;;;11.33;95.41
2339;BME280;1180;51.438;6.978;2023-04-24T08:31:03;98945.19;;;11.40;96.16
2339;BME280;1180;51.438;6.978;2023-04-24T08:33:28;98948.50;;;11.52;95.52
2339;BME280;1180;51.438;6.978;2023-04-24T08:36:00;98953.88;;;11.49;94.60
2339;BME280;1180;51.438;6.978;2023-04-24T08:38:26;98950.22;;;11.41;95.56
2339;BME280;1180;51.438;6.978;2023-04-24T08:40:52;98958.50;;;11.55;95.36
2339;BME280;1180;51.438;6.978;2023-04-24T08:43:18;98963.06;;;11.41;96.19
2339;BME280;1180;51.438;6.978;2023-04-24T08:45:46;98968.88;;;11.44;96.85
2339;BME280;1180;51.438;6.978;2023-04-24T08:48:12;98974.19;;;11.52;96.77
2339;BME280;1180;51.438;6.978;2023-04-24T08:50:38;98985.22;;;11.43;97.24
2339;BME280;1180;51.438;6.978;2023-04-24T08:53:04;98983.94;;;11.27;97.34
2339;BME280;1180;51.438;6.978;2023-04-24T08:55:30;98987.88;;;11.31;98.92
2339;BME280;1180;51.438;6.978;2023-04-24T08:57:56;98998.06;;;11.43;99.74
2339;BME280;1180;51.438;6.978;2023-04-24T09:00:21;99002.00;;;11.47;99.48
2339;BME280;1180;51.438;6.978;2023-04-24T09:02:49;99004.53;;;11.68;99.56
2339;BME280;1180;51.438;6.978;2023-04-24T09:05:17;99015.47;;;11.60;99.01
2339;BME280;1180;51.438;6.978;2023-04-24T09:07:45;99014.22;;;11.54;100.00
2339;BME280;1180;51.438;6.978;2023-04-24T09:10:16;99025.81;;;11.80;100.00
2339;BME280;1180;51.438;6.978;2023-04-24T09:12:42;99021.28;;;11.93;99.82
2339;BME280;1180;51.438;6.978;2023-04-24T09:15:09;99031.31;;;11.96;99.55
2339;BME280;1180;51.438;6.978;2023-04-24T09:17:35;99033.63;;;11.99;99.37
2339;BME280;1180;51.438;6.978;2023-04-24T09:20:01;99038.84;;;11.88;99.75
2339;BME280;1180;51.438;6.978;2023-04-24T09:22:30;99047.00;;;11.93;99.07
2339;BME280;1180;51.438;6.978;2023-04-24T09:25:06;99052.22;;;11.82;98.58
2339;BME280;1180;51.438;6.978;2023-04-24T09:27:33;99066.56;;;11.32;100.00
2339;BME280;1180;51.438;6.978;2023-04-24T09:29:59;99069.84;;;11.23;100.00
2339;BME280;1180;51.438;6.978;2023-04-24T09:32:25;99086.06;;;11.02;100.00
2339;BME280;1180;51.438;6.978;2023-04-24T09:35:13;99074.28;;;10.67;100.00
2339;BME280;1180;51.438;6.978;2023-04-24T09:37:41;99096.88;;;10.73;100.00
2339;BME280;1180;51.438;6.978;2023-04-24T09:40:14;99122.34;;;10.65;100.00
2339;BME280;1180;51.438;6.978;2023-04-24T09:42:51;99136.69;;;10.56;100.00
2339;BME280;1180;51.438;6.978;2023-04-24T09:45:17;99151.38;;;10.65;100.00
2339;BME280;1180;51.438;6.978;2023-04-24T09:47:42;99146.38;;;10.41;100.00
2339;BME280;1180;51.438;6.978;2023-04-24T09:50:15;99161.03;;;10.39;100.00
2339;BME280;1180;51.438;6.978;2023-04-24T09:52:43;99165.47;;;10.48;100.00
2339;BME280;1180;51.438;6.978;2023-04-24T09:55:18;99182.28;;;10.64;100.00
2339;BME280;1180;51.438;6.978;2023-04-24T09:57:48;99193.47;;;10.74;100.00
2339;BME280;1180;51.438;6.978;2023-04-24T10:00:18;99183.66;;;10.79;100.00
2339;BME280;1180;51.438;6.978;2023-04-24T10:02:43;99195.88;;;10.76;100.00
2339;BME280;1180;51.438;6.978;2023-04-24T10:05:11;99212.25;;;10.63;100.00
2339;BME280;1180;51.438;6.978;2023-04-24T10:07:37;99210.63;;;10.51;100.00
2339;BME280;1180;51.438;6.978;2023-04-24T10:10:03;99215.63;;;10.52;100.00
2339;BME280;1180;51.438;6.978;2023-04-24T10:12:29;99215.63;;;10.52;100.00
2339;BME280;1180;51.438;6.978;2023-04-24T10:14:56;99216.22;;;10.79;100.00
2339;BME280;1180;51.438;6.978;2023-04-24T10:17:24;99226.31;;;10.92;100.00
2339;BME280;1180;51.438;6.978;2023-04-24T10:19:51;99225.19;;;10.73;100.00
2339;BME280;1180;51.438;6.978;2023-04-24T10:22:17;99236.84;;;10.66;100.00
2339;BME280;1180;51.438;6.978;2023-04-24T10:24:44;99243.38;;;10.70;100.00
2339;BME280;1180;51.438;6.978;2023-04-24T10:27:11;99246.28;;;10.77;100.00
2339;BME280;1180;51.438;6.978;2023-04-24T10:29:38;99242.66;;;10.79;100.00
2339;BME280;1180;51.438;6.978;2023-04-24T10:32:06;99243.25;;;10.94;100.00
2339;BME280;1180;51.438;6.978;2023-04-24T10:34:32;99249.66;;;10.89;100.00
2339;BME280;1180;51.438;6.978;2023-04-24T10:36:58;99260.72;;;11.01;100.00
2339;BME280;1180;51.438;6.978;2023-04-24T10:39:24;99273.56;;;11.01;100.00
2339;BME280;1180;51.438;6.978;2023-04-24T10:41:49;99278.22;;;11.07;100.00
2339;BME280;1180;51.438;6.978;2023-04-24T10:44:15;99267.63;;;11.00;100.00
2339;BME280;1180;51.438;6.978;2023-04-24T10:46:46;99279.06;;;11.07;100.00
2339;BME280;1180;51.438;6.978;2023-04-24T10:49:12;99279.66;;;11.11;100.00
2339;BME280;1180;51.438;6.978;2023-04-24T10:51:52;99289.34;;;11.07;100.00
2339;BME280;1180;51.438;6.978;2023-04-24T10:54:36;99288.25;;;11.10;100.00
2339;BME280;1180;51.438;6.978;2023-04-24T10:59:52;99295.84;;;11.34;100.00
2339;BME280;1180;51.438;6.978;2023-04-24T11:02:38;99312.50;;;11.51;99.57
2339;BME280;1180;51.438;6.978;2023-04-24T11:05:06;99311.56;;;11.41;100.00
2339;BME280;1180;51.438;6.978;2023-04-24T11:10:46;99321.94;;;11.62;99.85
2339;BME280;1180;51.438;6.978;2023-04-24T11:13:16;99318.94;;;11.46;97.87
2339;BME280;1180;51.438;6.978;2023-04-24T11:15:42;99317.06;;;11.25;99.55
2339;BME280;1180;51.438;6.978;2023-04-24T11:18:16;99323.22;;;11.56;100.00
2339;BME280;1180;51.438;6.978;2023-04-24T11:20:43;99326.13;;;11.63;99.21
2339;BME280;1180;51.438;6.978;2023-04-24T11:23:08;99329.78;;;11.93;97.03
2339;BME280;1180;51.438;6.978;2023-04-24T11:25:35;99326.50;;;12.03;98.49
2339;BME280;1180;51.438;6.978;2023-04-24T11:28:04;99326.50;;;12.03;97.86
2339;BME280;1180;51.438;6.978;2023-04-24T11:30:31;99327.63;;;12.10;96.93
2339;BME280;1180;51.438;6.978;2023-04-24T11:33:04;99335.97;;;12.02;96.31
2339;BME280;1180;51.438;6.978;2023-04-24T11:35:35;99342.25;;;11.98;97.85
2339;BME280;1180;51.438;6.978;2023-04-24T11:38:02;99342.31;;;11.87;97.42
2339;BME280;1180;51.438;6.978;2023-04-24T11:40:28;99342.41;;;11.85;96.84
2339;BME280;1180;51.438;6.978;2023-04-24T11:42:54;99345.72;;;11.76;95.44
2339;BME280;1180;51.438;6.978;2023-04-24T11:45:26;99352.81;;;11.39;92.21
2339;BME280;1180;51.438;6.978;2023-04-24T11:47:52;99364.22;;;11.24;93.75
2339;BME280;1180;51.438;6.978;2023-04-24T11:50:22;99377.41;;;11.42;94.89
2339;BME280;1180;51.438;6.978;2023-04-24T11:52:49;99380.47;;;11.47;91.90
2339;BME280;1180;51.438;6.978;2023-04-24T11:57:43;99379.63;;;11.69;89.68
2339;BME280;1180;51.438;6.978;2023-04-24T12:00:15;99379.00;;;11.89;88.97
2339;BME280;1180;51.438;6.978;2023-04-24T12:02:41;99390.78;;;11.91;89.02
2339;BME280;1180;51.438;6.978;2023-04-24T12:05:07;99383.38;;;12.09;88.34
2339;BME280;1180;51.438;6.978;2023-04-24T12:07:40;99391.25;;;12.08;87.45
2339;BME280;1180;51.438;6.978;2023-04-24T12:10:07;99389.44;;;12.20;86.00
2339;BME280;1180;51.438;6.978;2023-04-24T12:12:33;99393.34;;;12.35;86.25
2339;BME280;1180;51.438;6.978;2023-04-24T12:14:59;99391.97;;;12.52;83.96
2339;BME280;1180;51.438;6.978;2023-04-24T12:17:30;99393.13;;;12.60;83.67
2339;BME280;1180;51.438;6.978;2023-04-24T12:20:06;99393.25;;;12.58;83.60
2339;BME280;1180;51.438;6.978;2023-04-24T12:22:45;99397.56;;;12.57;84.13
2339;BME280;1180;51.438;6.978;2023-04-24T12:25:12;99399.69;;;12.52;82.79
2339;BME280;1180;51.438;6.978;2023-04-24T12:27:38;99396.63;;;12.37;84.35
2339;BME280;1180;51.438;6.978;2023-04-24T12:30:05;99403.59;;;12.47;83.75
2339;BME280;1180;51.438;6.978;2023-04-24T12:32:30;99419.59;;;12.50;84.35
2339;BME280;1180;51.438;6.978;2023-04-24T12:34:57;99423.97;;;12.38;83.88
2339;BME280;1180;51.438;6.978;2023-04-24T12:37:24;99426.88;;;12.45;83.47
2339;BME280;1180;51.438;6.978;2023-04-24T12:40:10;99423.31;;;12.25;83.50
2339;BME280;1180;51.438;6.978;2023-04-24T12:42:42;99440.41;;;12.26;83.55
2339;BME280;1180;51.438;6.978;2023-04-24T12:45:08;99449.84;;;12.37;82.91
2339;BME280;1180;51.438;6.978;2023-04-24T12:47:34;99447.47;;;12.45;83.75
2339;BME280;1180;51.438;6.978;2023-04-24T12:50:01;99444.94;;;12.34;79.64
2339;BME280;1180;51.438;6.978;2023-04-24T12:52:28;99445.13;;;12.42;79.81
2339;BME280;1180;51.438;6.978;2023-04-24T12:54:56;99447.66;;;12.53;80.56
2339;BME280;1180;51.438;6.978;2023-04-24T12:57:23;99454.75;;;12.61;80.47
2339;BME280;1180;51.438;6.978;2023-04-24T12:59:48;99451.84;;;12.66;75.69
2339;BME280;1180;51.438;6.978;2023-04-24T13:02:14;99451.84;;;12.54;75.83
2339;BME280;1180;51.438;6.978;2023-04-24T13:04:44;99450.88;;;12.67;74.90
2339;BME280;1180;51.438;6.978;2023-04-24T13:07:11;99457.34;;;12.82;76.95
2339;BME280;1180;51.438;6.978;2023-04-24T13:09:37;99452.28;;;12.92;77.25
2339;BME280;1180;51.438;6.978;2023-04-24T13:12:03;99461.44;;;13.06;76.48
2339;BME280;1180;51.438;6.978;2023-04-24T13:14:31;99459.38;;;13.00;74.43
2339;BME280;1180;51.438;6.978;2023-04-24T13:16:57;99461.00;;;13.01;75.86
2339;BME280;1180;51.438;6.978;2023-04-24T13:19:26;99470.88;;;12.96;73.65
2339;BME280;1180;51.438;6.978;2023-04-24T13:21:53;99465.56;;;12.76;72.29
2339;BME280;1180;51.438;6.978;2023-04-24T13:24:20;99480.16;;;12.66;71.83